createdAt,value
2023-04-18T00:00:13.283Z,9.70
2023-04-18T00:00:48.949Z,14.93
2023-04-18T00:01:21.801Z,10.07
2023-04-18T00:01:56.613Z,19.65
2023-04-18T00:02:29.798Z,12.25
2023-04-18T00:03:04.352Z,29.92
2023-04-18T00:03:40.616Z,15.75
2023-04-18T00:04:14.147Z,13.85
2023-04-18T00:04:47.061Z,13.25
2023-04-18T00:05:22.575Z,15.45
2023-04-18T00:05:54.968Z,18.42
2023-04-18T00:06:27.136Z,16.58
2023-04-18T00:07:01.956Z,26.30
2023-04-18T00:07:34.458Z,16.15
2023-04-18T00:08:06.723Z,14.65
2023-04-18T00:08:41.483Z,8.43
2023-04-18T00:09:13.697Z,13.20
2023-04-18T00:09:45.963Z,9.38
2023-04-18T00:10:20.738Z,13.43
2023-04-18T00:10:54.262Z,18.17
2023-04-18T00:11:26.720Z,31.65
2023-04-18T00:12:03.193Z,27.23
2023-04-18T00:12:36.539Z,14.35
2023-04-18T00:13:08.729Z,12.32
2023-04-18T00:13:43.684Z,16.45
2023-04-18T00:14:15.999Z,15.57
2023-04-18T00:14:52.330Z,17.63
2023-04-18T00:15:29.385Z,9.77
2023-04-18T00:16:02.010Z,26.27
2023-04-18T00:16:34.326Z,10.93
2023-04-18T00:17:08.982Z,17.65
2023-04-18T00:17:43.858Z,11.45
2023-04-18T00:18:17.423Z,6.18
2023-04-18T00:18:49.850Z,19.88
2023-04-18T00:19:24.688Z,17.08
2023-04-18T00:19:58.470Z,24.67
2023-04-18T00:20:30.883Z,9.32
2023-04-18T00:21:06.654Z,13.52
2023-04-18T00:21:39.597Z,6.40
2023-04-18T00:22:13.303Z,10.52
2023-04-18T00:22:48.075Z,14.23
2023-04-18T00:23:22.399Z,15.52
2023-04-18T00:23:54.697Z,25.90
2023-04-18T00:24:29.454Z,14.57
2023-04-18T00:25:01.714Z,24.58
2023-04-18T00:25:34.140Z,12.35
2023-04-18T00:26:08.946Z,14.40
2023-04-18T00:26:41.581Z,15.70
2023-04-18T00:27:13.761Z,17.45
2023-04-18T00:27:48.605Z,17.02
2023-04-18T00:28:20.772Z,10.23
2023-04-18T00:28:54.317Z,25.98
2023-04-18T00:29:29.160Z,12.68
2023-04-18T00:30:04.487Z,35.08
2023-04-18T00:30:36.741Z,8.52
2023-04-18T00:31:12.624Z,14.68
2023-04-18T00:31:44.864Z,20.35
2023-04-18T00:32:17.186Z,28.02
2023-04-18T00:32:51.994Z,13.98
2023-04-18T00:33:24.418Z,18.40
2023-04-18T00:33:57.495Z,19.02
2023-04-18T00:34:32.316Z,16.50
2023-04-18T00:35:05.296Z,18.23
2023-04-18T00:35:38.687Z,14.50
2023-04-18T00:36:15.249Z,16.77
2023-04-18T00:36:47.413Z,23.17
2023-04-18T00:37:20.396Z,10.88
2023-04-18T00:37:57.100Z,24.33
2023-04-18T00:38:29.302Z,21.65
2023-04-18T00:39:04.438Z,29.88
2023-04-18T00:39:36.633Z,10.85
2023-04-18T00:40:10.264Z,20.92
2023-04-18T00:40:46.462Z,14.32
2023-04-18T00:41:19.572Z,18.25
2023-04-18T00:41:51.976Z,15.63
2023-04-18T00:42:28.997Z,29.65
2023-04-18T00:43:01.416Z,14.15
2023-04-18T00:43:35.298Z,20.65
2023-04-18T00:44:10.167Z,14.45
2023-04-18T00:44:42.405Z,14.10
2023-04-18T00:45:18.072Z,17.05
2023-04-18T00:45:52.943Z,18.63
2023-04-18T00:46:25.224Z,10.23
2023-04-18T00:46:57.411Z,31.55
2023-04-18T00:47:32.926Z,15.63
2023-04-18T00:48:05.371Z,11.95
2023-04-18T00:48:39.374Z,8.30
2023-04-18T00:49:14.831Z,16.08
2023-04-18T00:49:48.519Z,13.32
2023-04-18T00:50:21.375Z,12.90
2023-04-18T00:50:54.321Z,15.23
2023-04-18T00:51:29.229Z,15.57
2023-04-18T00:52:01.468Z,13.30
2023-04-18T00:52:36.097Z,12.60
2023-04-18T00:53:12.222Z,17.42
2023-04-18T00:53:45.033Z,18.85
2023-04-18T00:54:18.585Z,10.30
2023-04-18T00:54:53.761Z,25.40
2023-04-18T00:55:26.417Z,13.98
2023-04-18T00:55:58.710Z,22.83
2023-04-18T00:56:33.531Z,11.00
2023-04-18T00:57:06.195Z,14.75
2023-04-18T00:57:38.811Z,10.77
2023-04-18T00:58:14.078Z,9.18
2023-04-18T00:58:46.429Z,10.90
2023-04-18T00:59:19.009Z,12.27
2023-04-18T00:59:52.187Z,21.05
2023-04-18T01:00:30.039Z,13.70
2023-04-18T01:01:02.330Z,25.50
2023-04-18T01:01:34.691Z,11.60
2023-04-18T01:02:09.580Z,8.77
2023-04-18T01:02:41.943Z,4.68
2023-04-18T01:03:14.628Z,10.73
2023-04-18T01:03:47.087Z,10.52
2023-04-18T01:04:23.319Z,8.73
2023-04-18T01:04:55.612Z,24.83
2023-04-18T01:05:27.990Z,12.15
2023-04-18T01:06:02.897Z,16.50
2023-04-18T01:06:38.883Z,15.93
2023-04-18T01:07:11.977Z,8.50
2023-04-18T01:07:44.159Z,11.15
2023-04-18T01:08:20.036Z,13.23
2023-04-18T01:08:52.299Z,19.65
2023-04-18T01:09:25.484Z,8.68
2023-04-18T01:09:58.923Z,25.27
2023-04-18T01:10:33.815Z,6.20
2023-04-18T01:11:06.306Z,11.40
2023-04-18T01:11:38.541Z,8.70
2023-04-18T01:12:13.293Z,12.57
2023-04-18T01:12:45.726Z,10.68
2023-04-18T01:13:19.852Z,10.20
2023-04-18T01:14:04.421Z,20.33
2023-04-18T01:14:36.605Z,6.70
2023-04-18T01:15:09.415Z,14.88
2023-04-18T01:15:49.335Z,10.50
2023-04-18T01:16:22.491Z,12.88
2023-04-18T01:16:55.729Z,28.77
2023-04-18T01:17:31.010Z,15.45
2023-04-18T01:18:03.882Z,28.27
2023-04-18T01:18:37.285Z,10.15
2023-04-18T01:19:09.597Z,15.60
2023-04-18T01:19:44.686Z,7.05
2023-04-18T01:20:17.135Z,14.85
2023-04-18T01:20:50.871Z,18.58
2023-04-18T01:21:26.992Z,12.15
2023-04-18T01:22:01.736Z,23.02
2023-04-18T01:22:34.127Z,9.52
2023-04-18T01:23:06.490Z,13.48
2023-04-18T01:23:43.115Z,10.30
2023-04-18T01:24:18.356Z,23.23
2023-04-18T01:24:50.552Z,15.00
2023-04-18T01:25:25.314Z,12.35
2023-04-18T01:25:57.876Z,23.83
2023-04-18T01:26:31.400Z,9.82
2023-04-18T01:27:03.793Z,16.20
2023-04-18T01:27:38.543Z,13.88
2023-04-18T01:28:11.328Z,5.97
2023-04-18T01:28:43.549Z,10.20
2023-04-18T01:29:18.589Z,13.00
2023-04-18T01:29:50.887Z,19.73
2023-04-18T01:30:23.107Z,12.27
2023-04-18T01:30:59.294Z,27.33
2023-04-18T01:31:34.580Z,10.07
2023-04-18T01:32:07.486Z,10.77
2023-04-18T01:32:42.324Z,16.60
2023-04-18T01:33:14.544Z,8.68
2023-04-18T01:33:46.733Z,12.18
2023-04-18T01:34:24.066Z,9.15
2023-04-18T01:34:56.308Z,26.88
2023-04-18T01:35:28.962Z,13.68
2023-04-18T01:36:01.813Z,22.30
2023-04-18T01:36:41.387Z,8.25
2023-04-18T01:37:48.625Z,18.40
2023-04-18T01:38:23.543Z,8.95
2023-04-18T01:38:55.984Z,34.50
2023-04-18T01:39:30.761Z,10.95
2023-04-18T01:40:05.680Z,18.63
2023-04-18T01:40:37.945Z,19.25
2023-04-18T01:41:10.414Z,16.38
2023-04-18T01:41:45.470Z,8.10
2023-04-18T01:42:17.702Z,13.32
2023-04-18T01:42:49.929Z,19.75
2023-04-18T01:43:24.732Z,7.53
2023-04-18T01:43:57.004Z,24.52
2023-04-18T01:44:29.202Z,15.00
2023-04-18T01:45:04.058Z,25.73
2023-04-18T01:45:36.237Z,15.45
2023-04-18T01:46:08.453Z,18.52
2023-04-18T01:46:43.479Z,11.50
2023-04-18T01:47:15.752Z,24.58
2023-04-18T01:47:48.008Z,32.97
2023-04-18T01:48:22.793Z,16.85
2023-04-18T01:48:55.534Z,27.35
2023-04-18T01:49:27.862Z,26.52
2023-04-18T01:50:00.114Z,23.95
2023-04-18T01:50:36.952Z,31.10
2023-04-18T01:51:09.453Z,19.23
2023-04-18T01:51:44.101Z,26.65
2023-04-18T01:52:18.976Z,22.55
2023-04-18T01:52:51.147Z,21.00
2023-04-18T01:53:24.407Z,16.45
2023-04-18T01:53:59.226Z,33.70
2023-04-18T01:54:33.989Z,23.38
2023-04-18T01:55:06.906Z,21.90
2023-04-18T01:55:43.266Z,22.95
2023-04-18T01:56:15.547Z,24.52
2023-04-18T01:56:47.738Z,23.98
2023-04-18T01:57:22.595Z,21.15
2023-04-18T01:57:55.384Z,24.95
2023-04-18T01:58:27.674Z,19.80
2023-04-18T01:59:02.602Z,27.02
2023-04-18T01:59:34.844Z,11.48
2023-04-18T02:00:08.802Z,19.63
2023-04-18T02:00:49.890Z,29.67
2023-04-18T02:01:22.177Z,10.77
2023-04-18T02:01:55.037Z,24.67
2023-04-18T02:02:30.042Z,17.60
2023-04-18T02:03:03.161Z,22.50
2023-04-18T02:03:35.786Z,10.30
2023-04-18T02:04:10.926Z,30.23
2023-04-18T02:04:43.761Z,8.25
2023-04-18T02:05:16.057Z,18.63
2023-04-18T02:05:50.901Z,14.80
2023-04-18T02:06:23.128Z,8.20
2023-04-18T02:06:55.324Z,21.40
2023-04-18T02:07:30.183Z,16.27
2023-04-18T02:08:02.635Z,29.98
2023-04-18T02:08:36.151Z,9.27
2023-04-18T02:09:14.017Z,9.95
2023-04-18T02:09:50.881Z,20.50
2023-04-18T02:10:23.340Z,19.95
2023-04-18T02:10:58.078Z,19.73
2023-04-18T02:11:30.733Z,9.75
2023-04-18T02:12:03.434Z,25.17
2023-04-18T02:12:38.285Z,29.10
2023-04-18T02:13:10.643Z,13.90
2023-04-18T02:13:42.875Z,16.35
2023-04-18T02:14:17.665Z,12.35
2023-04-18T02:14:52.030Z,20.23
2023-04-18T02:15:24.571Z,72.95
2023-04-18T02:15:59.474Z,26.50
2023-04-18T02:16:31.827Z,20.10
2023-04-18T02:17:04.043Z,25.08
2023-04-18T02:17:37.022Z,14.68
2023-04-18T02:18:12.419Z,12.02
2023-04-18T02:18:45.584Z,7.85
2023-04-18T02:19:19.205Z,9.15
2023-04-18T02:19:54.455Z,20.33
2023-04-18T02:20:27.029Z,14.20
2023-04-18T02:20:59.191Z,29.63
2023-04-18T02:21:33.949Z,23.42
2023-04-18T02:22:06.158Z,11.00
2023-04-18T02:22:38.556Z,15.00
2023-04-18T02:23:13.654Z,12.40
2023-04-18T02:23:45.829Z,16.25
2023-04-18T02:24:18.185Z,12.02
2023-04-18T02:24:55.523Z,34.35
2023-04-18T02:25:29.063Z,20.17
2023-04-18T02:26:01.466Z,24.27
2023-04-18T02:26:36.263Z,13.32
2023-04-18T02:27:08.523Z,9.00
2023-04-18T02:27:41.087Z,33.97
2023-04-18T02:28:16.097Z,11.30
2023-04-18T02:28:48.417Z,14.50
2023-04-18T02:29:20.895Z,11.73
2023-04-18T02:29:53.057Z,13.63
2023-04-18T02:30:28.494Z,29.60
2023-04-18T02:31:00.871Z,22.65
2023-04-18T02:31:33.548Z,14.40
2023-04-18T02:32:09.355Z,11.15
2023-04-18T02:32:41.773Z,13.98
2023-04-18T02:33:14.719Z,16.77
2023-04-18T02:33:47.260Z,27.25
2023-04-18T02:34:22.130Z,8.30
2023-04-18T02:34:54.311Z,37.30
2023-04-18T02:35:28.149Z,21.30
2023-04-18T02:36:02.900Z,34.38
2023-04-18T02:36:35.166Z,21.55
2023-04-18T02:37:08.297Z,24.55
2023-04-18T02:37:43.072Z,14.63
2023-04-18T02:38:18.085Z,38.63
2023-04-18T02:38:50.325Z,14.82
2023-04-18T02:39:28.609Z,26.67
2023-04-18T02:40:05.103Z,24.85
2023-04-18T02:40:37.634Z,14.63
2023-04-18T02:41:15.413Z,13.65
2023-04-18T02:41:47.653Z,17.30
2023-04-18T02:42:20.103Z,18.38
2023-04-18T02:42:54.980Z,31.00
2023-04-18T02:43:27.269Z,13.05
2023-04-18T02:43:59.458Z,32.15
2023-04-18T02:44:34.251Z,10.48
2023-04-18T02:45:08.362Z,19.77
2023-04-18T02:45:40.718Z,17.88
2023-04-18T02:46:15.630Z,21.05
2023-04-18T02:46:50.513Z,73.57
2023-04-18T02:47:23.116Z,18.23
2023-04-18T02:47:57.960Z,40.65
2023-04-18T02:48:30.376Z,30.30
2023-04-18T02:49:03.070Z,31.10
2023-04-18T02:49:35.272Z,11.85
2023-04-18T02:50:11.444Z,15.43
2023-04-18T02:50:43.786Z,13.93
2023-04-18T02:51:16.608Z,13.85
2023-04-18T02:51:51.351Z,26.10
2023-04-18T02:52:25.798Z,35.40
2023-04-18T02:52:58.022Z,27.77
2023-04-18T02:53:40.205Z,15.27
2023-04-18T02:54:12.669Z,11.77
2023-04-18T02:55:05.462Z,24.25
2023-04-18T02:55:42.857Z,18.05
2023-04-18T02:56:19.808Z,19.17
2023-04-18T02:57:19.498Z,18.58
2023-04-18T02:58:09.508Z,24.77
2023-04-18T02:59:14.634Z,20.83
2023-04-18T03:00:11.355Z,16.15
2023-04-18T03:01:09.385Z,27.10
2023-04-18T03:02:13.287Z,32.67
2023-04-18T03:02:53.524Z,23.63
2023-04-18T03:03:39.476Z,13.77
2023-04-18T03:04:52.511Z,16.48
2023-04-18T03:05:24.905Z,15.05
2023-04-18T03:06:00.587Z,40.42
2023-04-18T03:06:36.282Z,15.18
2023-04-18T03:07:08.461Z,11.00
2023-04-18T03:07:43.179Z,27.40
2023-04-18T03:08:18.347Z,16.67
2023-04-18T03:08:50.729Z,20.58
2023-04-18T03:09:22.990Z,21.55
2023-04-18T03:10:06.122Z,26.52
2023-04-18T03:10:40.911Z,17.30
2023-04-18T03:11:13.503Z,30.08
2023-04-18T03:11:48.276Z,16.90
2023-04-18T03:12:21.352Z,22.13
2023-04-18T03:12:53.646Z,25.88
2023-04-18T03:13:26.686Z,14.82
2023-04-18T03:14:01.806Z,25.52
2023-04-18T03:14:40.985Z,20.98
2023-04-18T03:15:13.293Z,27.25
2023-04-18T03:15:48.165Z,27.92
2023-04-18T03:16:21.102Z,28.30
2023-04-18T03:16:55.541Z,40.15
2023-04-18T03:17:34.850Z,15.93
2023-04-18T03:18:07.167Z,26.92
2023-04-18T03:18:42.144Z,19.92
2023-04-18T03:19:17.132Z,28.17
2023-04-18T03:19:49.497Z,34.25
2023-04-18T03:20:24.700Z,44.67
2023-04-18T03:21:00.889Z,31.10
2023-04-18T03:21:34.762Z,49.20
2023-04-18T03:22:07.020Z,27.27
2023-04-18T03:22:44.655Z,69.40
2023-04-18T03:23:17.712Z,43.72
2023-04-18T03:23:50.570Z,25.75
2023-04-18T03:24:25.339Z,25.10
2023-04-18T03:25:02.466Z,43.88
2023-04-18T03:25:58.049Z,18.55
2023-04-18T03:26:31.282Z,44.65
2023-04-18T03:27:03.613Z,30.67
2023-04-18T03:27:38.423Z,22.60
2023-04-18T03:28:10.764Z,41.78
2023-04-18T03:28:43.000Z,32.33
2023-04-18T03:29:17.819Z,21.55
2023-04-18T03:29:51.651Z,32.92
2023-04-18T03:30:23.921Z,50.70
2023-04-18T03:31:03.341Z,40.78
2023-04-18T03:31:37.260Z,59.25
2023-04-18T03:32:12.819Z,14.23
2023-04-18T03:32:46.895Z,32.72
2023-04-18T03:33:19.152Z,52.40
2023-04-18T03:33:56.388Z,61.47
2023-04-18T03:34:28.828Z,39.88
2023-04-18T03:35:01.297Z,32.10
2023-04-18T03:35:36.504Z,18.83
2023-04-18T03:36:11.513Z,32.42
2023-04-18T03:36:46.559Z,29.27
2023-04-18T03:37:20.044Z,34.38
2023-04-18T03:38:00.161Z,90.63
2023-04-18T03:38:40.708Z,17.20
2023-04-18T03:39:13.824Z,44.53
2023-04-18T03:39:48.900Z,31.35
2023-04-18T03:40:23.840Z,47.60
2023-04-18T03:41:01.233Z,24.98
2023-04-18T03:41:38.587Z,22.00
2023-04-18T03:42:10.939Z,21.25
2023-04-18T03:42:46.622Z,22.88
2023-04-18T03:43:19.717Z,44.22
2023-04-18T03:43:51.944Z,49.47
2023-04-18T03:44:26.746Z,32.83
2023-04-18T03:44:59.024Z,34.13
2023-04-18T03:45:32.912Z,58.88
2023-04-18T03:46:08.059Z,85.43
2023-04-18T03:46:41.440Z,28.02
2023-04-18T03:47:15.054Z,28.73
2023-04-18T03:47:52.419Z,25.52
2023-04-18T03:48:26.238Z,37.92
2023-04-18T03:49:00.019Z,37.03
2023-04-18T03:49:34.788Z,61.15
2023-04-18T03:50:09.368Z,26.95
2023-04-18T03:50:41.767Z,29.73
2023-04-18T03:51:18.314Z,22.63
2023-04-18T03:51:52.263Z,61.83
2023-04-18T03:52:24.970Z,28.40
2023-04-18T03:52:59.740Z,29.67
2023-04-18T03:53:35.134Z,39.90
2023-04-18T03:54:07.392Z,32.10
2023-04-18T03:54:42.206Z,36.75
2023-04-18T03:55:14.967Z,52.00
2023-04-18T03:55:53.158Z,40.97
2023-04-18T03:56:29.864Z,28.88
2023-04-18T03:57:03.256Z,40.22
2023-04-18T03:57:40.244Z,32.88
2023-04-18T03:58:16.445Z,49.08
2023-04-18T03:58:51.785Z,25.20
2023-04-18T03:59:25.911Z,47.53
2023-04-18T03:59:58.143Z,27.95
2023-04-18T04:00:33.266Z,62.85
2023-04-18T04:01:11.241Z,16.63
2023-04-18T04:01:43.582Z,29.15
2023-04-18T04:02:18.578Z,38.08
2023-04-18T04:02:51.256Z,40.08
2023-04-18T04:03:28.027Z,19.05
2023-04-18T04:04:04.111Z,34.95
2023-04-18T04:04:36.503Z,25.98
2023-04-18T04:05:09.380Z,36.33
2023-04-18T04:05:44.450Z,40.70
2023-04-18T04:06:17.912Z,32.50
2023-04-18T04:06:50.826Z,42.33
2023-04-18T04:07:25.651Z,33.17
2023-04-18T04:07:58.423Z,41.63
2023-04-18T04:08:30.720Z,38.80
2023-04-18T04:09:05.687Z,40.65
2023-04-18T04:09:38.423Z,54.22
2023-04-18T04:10:11.815Z,50.40
2023-04-18T04:10:44.060Z,52.65
2023-04-18T04:11:22.073Z,35.53
2023-04-18T04:11:54.258Z,33.08
2023-04-18T04:12:27.313Z,53.63
2023-04-18T04:13:02.137Z,38.30
2023-04-18T04:13:36.327Z,30.17
2023-04-18T04:14:11.290Z,27.30
2023-04-18T04:14:48.172Z,49.45
2023-04-18T04:15:23.078Z,36.55
2023-04-18T04:16:01.191Z,54.33
2023-04-18T04:16:33.739Z,46.38
2023-04-18T04:17:06.736Z,44.25
2023-04-18T04:17:41.642Z,32.35
2023-04-18T04:18:13.877Z,53.88
2023-04-18T04:18:48.825Z,47.80
2023-04-18T04:19:24.030Z,43.65
2023-04-18T04:20:06.504Z,49.67
2023-04-18T04:20:39.294Z,44.17
2023-04-18T04:21:20.641Z,41.10
2023-04-18T04:21:56.725Z,53.95
2023-04-18T04:22:29.028Z,42.05
2023-04-18T04:23:03.930Z,50.60
2023-04-18T04:23:38.240Z,65.03
2023-04-18T04:24:10.721Z,45.42
2023-04-18T04:24:49.675Z,45.42
2023-04-18T04:25:28.839Z,61.83
2023-04-18T04:26:06.888Z,54.45
2023-04-18T04:26:50.933Z,52.15
2023-04-18T04:27:29.392Z,32.50
2023-04-18T04:28:03.023Z,57.85
2023-04-18T04:28:40.106Z,43.22
2023-04-18T04:29:16.576Z,26.08
2023-04-18T04:29:52.379Z,39.25
2023-04-18T04:30:24.720Z,35.40
2023-04-18T04:31:00.158Z,53.90
2023-04-18T04:31:32.953Z,41.13
2023-04-18T04:32:06.832Z,44.00
2023-04-18T04:32:45.737Z,51.47
2023-04-18T04:33:18.719Z,78.28
2023-04-18T04:33:51.216Z,66.10
2023-04-18T04:34:28.486Z,44.90
2023-04-18T04:35:00.942Z,52.42
2023-04-18T04:35:37.669Z,43.00
2023-04-18T04:36:10.434Z,71.18
2023-04-18T04:36:43.356Z,37.60
2023-04-18T04:37:20.996Z,39.50
2023-04-18T04:38:08.728Z,49.38
2023-04-18T04:38:52.480Z,33.88
2023-04-18T04:39:30.528Z,49.47
2023-04-18T04:40:37.640Z,36.75
2023-04-18T04:41:15.229Z,29.02
2023-04-18T04:41:50.165Z,31.88
2023-04-18T04:42:28.713Z,53.67
2023-04-18T04:43:12.912Z,35.55
2023-04-18T04:43:48.415Z,68.80
2023-04-18T04:44:27.092Z,48.00
2023-04-18T04:44:59.976Z,73.47
2023-04-18T04:45:35.296Z,59.67
2023-04-18T04:46:07.962Z,72.10
2023-04-18T04:46:40.608Z,46.08
2023-04-18T04:47:22.155Z,37.38
2023-04-18T04:47:54.521Z,53.90
2023-04-18T04:48:27.186Z,33.25
2023-04-18T04:49:02.521Z,58.60
2023-04-18T04:49:34.717Z,43.35
2023-04-18T04:50:13.491Z,26.60
2023-04-18T04:50:55.262Z,37.97
2023-04-18T04:51:28.228Z,26.63
2023-04-18T04:52:02.092Z,34.78
2023-04-18T04:52:37.204Z,22.67
2023-04-18T04:53:09.533Z,34.70
2023-04-18T04:53:41.883Z,28.15
2023-04-18T04:54:16.851Z,28.77
2023-04-18T04:54:51.613Z,47.80
2023-04-18T04:55:27.726Z,18.95
2023-04-18T04:56:00.031Z,44.83
2023-04-18T04:56:35.643Z,33.35
2023-04-18T04:57:10.899Z,44.00
2023-04-18T04:57:43.239Z,65.45
2023-04-18T04:58:33.205Z,47.47
2023-04-18T04:59:12.016Z,35.45
2023-04-18T04:59:46.902Z,36.17
2023-04-18T05:00:23.058Z,36.72
2023-04-18T05:00:56.677Z,56.35
2023-04-18T05:01:31.633Z,35.17
2023-04-18T05:02:04.712Z,75.75
2023-04-18T05:02:37.064Z,81.90
2023-04-18T05:03:12.613Z,68.68
2023-04-18T05:03:45.211Z,54.60
2023-04-18T05:04:20.362Z,41.13
2023-04-18T05:04:52.831Z,63.03
2023-04-18T05:05:25.043Z,49.75
2023-04-18T05:05:59.855Z,43.30
2023-04-18T05:06:32.286Z,48.50
2023-04-18T05:07:05.982Z,47.03
2023-04-18T05:07:40.821Z,27.60
2023-04-18T05:08:13.040Z,24.50
2023-04-18T05:08:47.855Z,45.95
2023-04-18T05:09:20.062Z,66.78
2023-04-18T05:09:55.047Z,62.03
2023-04-18T05:10:27.302Z,46.28
2023-04-18T05:11:02.056Z,63.20
2023-04-18T05:11:34.280Z,74.43
2023-04-18T05:12:06.988Z,44.60
2023-04-18T05:12:44.352Z,39.92
2023-04-18T05:13:16.946Z,45.42
2023-04-18T05:13:49.117Z,38.00
2023-04-18T05:14:23.888Z,63.80
2023-04-18T05:14:56.079Z,73.13
2023-04-18T05:15:28.362Z,35.65
2023-04-18T05:16:03.243Z,49.95
2023-04-18T05:16:36.014Z,43.70
2023-04-18T05:17:10.886Z,58.25
2023-04-18T05:17:43.216Z,90.10
2023-04-18T05:18:15.704Z,37.90
2023-04-18T05:18:50.569Z,80.03
2023-04-18T05:19:23.607Z,128.95
2023-04-18T05:19:58.600Z,60.53
2023-04-18T05:20:30.882Z,56.83
2023-04-18T05:21:03.113Z,57.20
2023-04-18T05:21:38.023Z,71.47
2023-04-18T05:22:10.923Z,73.75
2023-04-18T05:22:43.110Z,54.33
2023-04-18T05:23:17.891Z,62.65
2023-04-18T05:23:50.097Z,88.90
2023-04-18T05:24:22.368Z,64.30
2023-04-18T05:24:57.131Z,65.85
2023-04-18T05:25:30.106Z,58.45
2023-04-18T05:26:02.363Z,75.68
2023-04-18T05:26:37.182Z,45.53
2023-04-18T05:27:10.068Z,63.65
2023-04-18T05:27:46.008Z,44.10
2023-04-18T05:28:20.850Z,71.32
2023-04-18T05:28:53.083Z,65.43
2023-04-18T05:29:25.817Z,60.97
2023-04-18T05:30:00.685Z,60.25
2023-04-18T05:30:32.884Z,67.25
2023-04-18T05:31:05.270Z,53.22
2023-04-18T05:31:40.026Z,50.38
2023-04-18T05:32:12.237Z,64.95
2023-04-18T05:32:44.728Z,78.40
2023-04-18T05:33:19.522Z,76.50
2023-04-18T05:33:51.736Z,77.57
2023-04-18T05:34:24.032Z,82.68
2023-04-18T05:34:59.452Z,128.05
2023-04-18T05:35:31.875Z,69.68
2023-04-18T05:36:04.527Z,86.97
2023-04-18T05:36:39.855Z,99.25
2023-04-18T05:37:12.085Z,66.47
2023-04-18T05:37:44.351Z,82.47
2023-04-18T05:38:19.228Z,79.55
2023-04-18T05:38:51.888Z,83.65
2023-04-18T05:39:24.086Z,85.68
2023-04-18T05:40:00.757Z,101.57
2023-04-18T05:40:33.442Z,98.28
2023-04-18T05:41:05.949Z,54.33
2023-04-18T05:41:40.726Z,68.47
2023-04-18T05:42:12.897Z,72.63
2023-04-18T05:42:47.718Z,68.93
2023-04-18T05:43:22.772Z,50.00
2023-04-18T05:44:04.985Z,50.85
2023-04-18T05:44:40.646Z,39.25
2023-04-18T05:45:12.932Z,42.63
2023-04-18T05:45:45.591Z,51.15
2023-04-18T05:46:20.441Z,68.53
2023-04-18T05:46:52.725Z,70.35
2023-04-18T05:47:27.267Z,61.15
2023-04-18T05:48:02.200Z,77.35
2023-04-18T05:48:34.443Z,71.68
2023-04-18T05:49:06.678Z,80.93
2023-04-18T05:49:41.657Z,62.70
2023-04-18T05:50:14.031Z,58.42
2023-04-18T05:50:46.347Z,41.15
2023-04-18T05:51:21.162Z,33.85
2023-04-18T05:51:53.365Z,82.50
2023-04-18T05:52:26.353Z,65.40
2023-04-18T05:53:01.691Z,45.30
2023-04-18T05:53:33.905Z,48.88
2023-04-18T05:54:08.867Z,80.07
2023-04-18T05:54:41.367Z,72.70
2023-04-18T05:55:13.620Z,70.30
2023-04-18T05:55:49.132Z,60.65
2023-04-18T05:56:21.381Z,56.67
2023-04-18T05:56:54.856Z,66.03
2023-04-18T05:57:29.629Z,54.90
2023-04-18T05:58:04.525Z,56.03
2023-04-18T05:58:39.334Z,47.65
2023-04-18T05:59:11.570Z,78.68
2023-04-18T05:59:44.027Z,56.92
2023-04-18T06:00:20.046Z,113.93
2023-04-18T06:00:53.551Z,74.57
2023-04-18T06:01:25.837Z,88.15
2023-04-18T06:02:00.993Z,77.60
2023-04-18T06:02:33.304Z,74.65
2023-04-18T06:03:07.182Z,68.97
2023-04-18T06:03:43.792Z,112.18
2023-04-18T06:04:17.055Z,62.03
2023-04-18T06:04:50.001Z,60.13
2023-04-18T06:05:25.084Z,67.18
2023-04-18T06:05:57.812Z,102.70
2023-04-18T06:06:30.236Z,81.10
2023-04-18T06:07:05.125Z,79.30
2023-04-18T06:07:37.342Z,86.50
2023-04-18T06:08:09.658Z,57.75
2023-04-18T06:08:44.391Z,44.25
2023-04-18T06:09:16.819Z,74.82
2023-04-18T06:09:49.966Z,27.63
2023-04-18T06:10:24.900Z,61.80
2023-04-18T06:10:57.099Z,77.50
2023-04-18T06:11:29.307Z,51.78
2023-04-18T06:12:04.375Z,69.70
2023-04-18T06:12:36.575Z,55.35
2023-04-18T06:13:14.504Z,66.72
2023-04-18T06:13:46.739Z,50.08
2023-04-18T06:14:18.941Z,45.88
2023-04-18T06:14:53.812Z,84.28
2023-04-18T06:15:26.093Z,65.97
2023-04-18T06:16:01.056Z,62.08
2023-04-18T06:16:33.354Z,80.05
2023-04-18T06:17:07.449Z,44.53
2023-04-18T06:17:42.409Z,49.17
2023-04-18T06:18:14.687Z,65.80
2023-04-18T06:18:46.861Z,67.93
2023-04-18T06:19:22.185Z,44.67
2023-04-18T06:19:54.437Z,75.22
2023-04-18T06:20:29.330Z,75.88
2023-04-18T06:21:01.501Z,63.40
2023-04-18T06:21:36.289Z,71.85
2023-04-18T06:22:08.473Z,86.38
2023-04-18T06:22:43.251Z,84.28
2023-04-18T06:23:15.882Z,107.82
2023-04-18T06:23:50.690Z,83.97
2023-04-18T06:24:23.286Z,87.65
2023-04-18T06:24:55.914Z,88.57
2023-04-18T06:25:30.742Z,73.45
2023-04-18T06:26:03.095Z,54.58
2023-04-18T06:26:38.287Z,78.60
2023-04-18T06:27:20.445Z,68.18
2023-04-18T06:28:02.904Z,49.67
2023-04-18T06:28:37.755Z,72.13
2023-04-18T06:29:09.941Z,47.20
2023-04-18T06:29:44.695Z,76.63
2023-04-18T06:30:17.107Z,48.88
2023-04-18T06:30:52.148Z,57.55
2023-04-18T06:31:24.452Z,48.55
2023-04-18T06:31:59.391Z,74.82
2023-04-18T06:32:31.761Z,87.35
2023-04-18T06:33:10.522Z,96.78
2023-04-18T06:33:42.772Z,59.88
2023-04-18T06:34:15.316Z,65.35
2023-04-18T06:34:50.570Z,75.25
2023-04-18T06:35:24.555Z,95.30
2023-04-18T06:36:01.295Z,73.30
2023-04-18T06:36:33.723Z,63.25
2023-04-18T06:37:06.121Z,77.43
2023-04-18T06:37:44.209Z,73.00
2023-04-18T06:38:16.407Z,53.70
2023-04-18T06:38:51.178Z,73.13
2023-04-18T06:39:23.364Z,86.20
2023-04-18T06:39:55.706Z,47.97
2023-04-18T06:40:30.511Z,64.13
2023-04-18T06:41:02.851Z,63.28
2023-04-18T06:41:37.631Z,70.90
2023-04-18T06:42:09.862Z,43.10
2023-04-18T06:42:52.301Z,37.70
2023-04-18T06:43:24.613Z,67.05
2023-04-18T06:44:14.666Z,48.55
2023-04-18T06:44:46.922Z,57.30
2023-04-18T06:45:21.957Z,70.60
2023-04-18T06:45:54.255Z,62.65
2023-04-18T06:46:29.114Z,53.03
2023-04-18T06:47:01.667Z,34.05
2023-04-18T06:47:33.879Z,49.28
2023-04-18T06:48:10.889Z,45.92
2023-04-18T06:48:43.153Z,65.47
2023-04-18T06:49:17.983Z,51.47
2023-04-18T06:49:50.255Z,46.97
2023-04-18T06:50:25.318Z,65.75
2023-04-18T06:50:57.575Z,60.67
2023-04-18T06:51:29.764Z,51.97
2023-04-18T06:52:04.557Z,40.92
2023-04-18T06:52:40.773Z,64.30
2023-04-18T06:53:15.646Z,47.97
2023-04-18T06:53:48.648Z,72.80
2023-04-18T06:54:23.466Z,45.53
2023-04-18T06:54:55.632Z,67.75
2023-04-18T06:55:30.892Z,77.07
2023-04-18T06:56:03.275Z,68.82
2023-04-18T06:56:36.633Z,65.40
2023-04-18T06:57:11.987Z,54.05
2023-04-18T06:57:44.362Z,39.90
2023-04-18T06:58:17.394Z,55.13
2023-04-18T06:58:53.141Z,48.42
2023-04-18T06:59:28.195Z,70.97
2023-04-18T07:00:03.012Z,34.53
2023-04-18T07:00:35.240Z,58.55
2023-04-18T07:01:10.054Z,49.35
2023-04-18T07:01:42.331Z,303.63
2023-04-18T07:02:17.463Z,67.22
2023-04-18T07:02:49.950Z,27.05
2023-04-18T07:03:22.421Z,74.68
2023-04-18T07:03:57.438Z,46.17
2023-04-18T07:04:29.861Z,58.45
2023-04-18T07:05:02.218Z,58.80
2023-04-18T07:05:37.003Z,45.22
2023-04-18T07:06:10.720Z,38.17
2023-04-18T07:06:45.740Z,32.50
2023-04-18T07:07:17.945Z,47.63
2023-04-18T07:07:52.779Z,48.72
2023-04-18T07:08:24.936Z,75.93
2023-04-18T07:09:00.300Z,44.42
2023-04-18T07:09:35.312Z,93.43
2023-04-18T07:10:09.966Z,52.63
2023-04-18T07:10:46.002Z,61.13
2023-04-18T07:11:18.787Z,42.83
2023-04-18T07:11:53.724Z,51.70
2023-04-18T07:12:26.119Z,65.63
2023-04-18T07:13:00.954Z,40.50
2023-04-18T07:13:33.564Z,68.22
2023-04-18T07:14:08.437Z,46.13
2023-04-18T07:14:43.282Z,58.28
2023-04-18T07:15:18.154Z,71.70
2023-04-18T07:15:50.395Z,40.25
2023-04-18T07:16:25.315Z,84.85
2023-04-18T07:16:58.108Z,39.10
2023-04-18T07:17:30.353Z,56.00
2023-04-18T07:18:05.324Z,42.47
2023-04-18T07:18:38.586Z,77.07
2023-04-18T07:19:13.624Z,85.40
2023-04-18T07:19:45.935Z,99.50
2023-04-18T07:20:20.743Z,91.32
2023-04-18T07:20:52.940Z,66.90
2023-04-18T07:21:25.135Z,81.50
2023-04-18T07:22:00.049Z,56.22
2023-04-18T07:22:32.231Z,71.22
2023-04-18T07:23:07.053Z,35.53
2023-04-18T07:23:39.274Z,50.40
2023-04-18T07:24:14.807Z,23.02
2023-04-18T07:24:47.317Z,39.75
2023-04-18T07:25:19.941Z,37.35